Timeline UpdatesTrip UpdatesNews PostsPvt PostsTravel TipsAdmin PostsConv PostsFollowed PostsChat RequestsBlog PostsPNR Posts

Disclaimer
Search
 
 
Thu Aug 28, 2014 10:36:32 ISTHomeTrainsΣChainsAtlasPNRForumGalleryNewsFAQTripsMembersLoginFeedback
No Recent News for this Train
Other Trains in the News **new
Latest...
.
Thu Jul 24, 2014 (11:10PM)
⇐ Return Journey: Train# 19019

19020/Dehradun - Mumbai Bandra Terminus Express

Apr 15 2014 (1:35PM)
Change Departure Station:
Change Arrival Station:
Post a Train Travel TipPost a Train Travel Tip **new
Post a Comment/Question/Picture/VideoPost a Comment/Question/Picture/Video
Pantry/Catering
✕ NO Pantry Car
✓ Catering Avbl
Loco/Rake Reversals
SRE/Saharanpur Junction (6); LRJ/Laksar Junction (4);
RSA - Rake Sharing
Rake/Coach Composition
LOCO-SLR-HCPV-GEN-GEN-AB1-S1-S2-S3-S4-S5-S6-S7-S8-S9-SLR
Loco
GZB WAP-7 NZM-BDTS. ddn to nzm tkd wdp 3a. By Er...
Read more...
Ankit Shotra Bhagat Entry# 595554
News    PNR    Forum    Time-Table    Availability    Fare Chart    Map    Arr/Dep History    Trips    Gallery    ΣChains    X/O    Timeline    
Travel Time: 4h 52m    6 halts    Distance: 233 km    Avg Speed: 47 km/hr
Type: Mail/Express
Zone: WR/Western
Departs @ 22:38 (Avg 11m late)
Platform# 2
SMTWTFS
Surat/ST 
Arrives @ 03:30 +1 night (Avg 7m late)
Platform# 5
SMTWTFS
Mumbai Borivali/BVI 

6 halts. 40 intermediate Stations between Surat and Mumbai Borivali

Show ALL intermediate Stations  Show Old Time-Table

#CodeStation NameX/OArrivesAvgDepartsAvgHaltPFDay#KmSpeedElevZoneAddress
1DDNDehradun (4)  -10:35+021-1429.941648mNRDehradun, Uttarakhand
2DWODoiwala  11:04+411:06+42m--1-1410.139484mNRDehradun, Uttarakhand
3RWLRaiwala Junction (2)X  11:38+311:40+172m21-1389.420361mNRRishikesh, Uttarakhand
4MOTCMotichur (2)X  12:00+812:02+102m11-1382.821312mNRHaridwar, Uttarakhand
5HWHaridwar Junction (9)X  12:15+1112:45+1230m31-1378.230294mNRHaridwar, Uttarakhand
6JWPJwalapur  12:53+1312:55+132m--1-1374.321292mNRHaridwar, Uttarakhand
7LRJLaksar Junction (4)X14:00+814:25+725m--1-1351.359238mNRLaksar, Uttarakhand
8RKRoorkee (3)X  14:43+914:45+122m31-1333.542264mNRRoorkee - 247667, Uttarakhand
9SRESaharanpur Junction (6)X15:35+916:05+230m41-1298.846276mNRSaharanpur, Uttar Pradesh
10DBDDeoband (2)  16:50+716:52+82m21-1264.651258mNRSaharanpur, Uttar Pradesh
11MOZMuzaffarnagar (3)X  17:20+517:22+212m21-1240.667247mNRMuzaffarNagar, Uttar Pradesh
12KATKhatauli (2)  17:42+2317:44+232m11-1218.473239mNRKhatauli, Uttar Pradesh
13MUTMeerut Cantt. (2)  18:08+2718:10+272m11-1189.310230mNRMeerut, Uttar Pradesh
14MTCMeerut City Junction (6)X18:35+1219:20+745m41-1185.083229mNRMeerut, Uttar Pradesh
15MDNRModinagar (2)X  19:34+1319:36+132m21-1165.567221mNRGhaziabad, Uttar Pradesh
16MUDMuradnagar (2)  19:45+1419:47+142m21-1155.447220mNRGhaziabad, Uttar Pradesh
17GZNNew Ghaziabad (2)X  20:02+720:04+72m21-1143.714213mNRGhaziabad, Uttar Pradesh
18GZBGhaziabad Junction (6)X  20:30+420:32+52m41-1137.845217mNRGhaziabad, Uttar Pradesh
19SBBSahibabad Junction (5)X  20:41+1220:43+112m--1-1131.130209mNRGhaziabad, Uttar Pradesh
20NZMDelhi Hazrat Nizamuddin (7)O21:15+1221:55+940m11-1115.025209mNRNew Delhi 110013, Delhi NCT
21TKDTuglakabad (4)XO  22:18+922:20+132m--1-1105.428213mNRNear Tughlakabad Metro Station, Delhi NCT
22FDBFaridabad (4)  22:44+622:46+82m31-1094.240206mNRold Faridabad, Haryana
23BVHBallabgarh (5)O  22:58+1023:00+102m--1-1086.235203mNRFaridabad, Haryana
24PWLPalwal (8)X  23:36+123:38+42m--1-1065.085200mNRPalwal, Haryana
25KSVKosi Kalan (3)O  00:08+1600:10+162m22-1022.529189mNCRKosi Kalan, Uttar Pradesh
26MTJMathura Junction (10)X  01:35-101:45+110m32-981.180179mNCRMathura, Uttar Pradesh
27BTEBharatpur Junction (5)  02:10+702:15+75m--2-947.684174mWCRBharatpur, Rajasthan
28BXNBayana Junction (3)XO  02:45+702:47+102m--2-905.674198mWCRBayana, Rajasthan
29FSPFateh SinghpuraO  03:03+1003:05+112m--2-885.979223mWCRState Highway 1, Rajasthan
30HANHindaun City (2)  03:15+1403:17+152m--2-872.768230mWCRKarauli, Rajasthan
31SMBJShri Mahabirji (3)O  03:26+1703:28+172m--2-862.549240mWCRKarauli, Rajasthan
32GGCGangapur City (3)  04:10+304:20+610m--2-828.464270mWCRGangapur, Rajasthan
33NNWNarayanpur Tatwara (2)X  04:36+704:38+72m--2-811.584256mWCRSawai Madhopur, Rajasthan
34MLZMalarnaX  04:50+904:52+92m--2-794.765236mWCRSawai Madhopur, Rajasthan
35SWMSawai Madhopur Junction (4)XO  05:20+705:25+75m--2-764.595266mWCRSawai Madhopur, Rajasthan
36IDGIndargarh Sumerganj Mandi (2)X  05:48+1305:50+152m--2-728.382247mWCRIndargarh, Rajasthan
37LKELakheri (3)  05:58+1806:00+182m--2-717.374228mWCRBundi, Rajasthan
38KPTNKeshorai PatanX  06:38+1906:40+222m--2-670.260243mWCRSH 33, Rajasthan
39GQLGurla  06:48+2706:50+302m--2-662.28251mWCRSH 33, Rajasthan
40KOTAKota Junction (5)X07:30+707:50+1220m22-656.851256mWCRKota, Rajasthan
41DKNTDakaniya Talav (2)  08:01+1708:03+192m22-647.585278mWCRKota, Rajasthan
42DARADaraX  08:30+2208:32+222m--2-609.355354mWCRDara, Rajasthan
43MKXMorak (2)X  08:48+2208:50+232m--2-594.642337mWCRMorak, Rajasthan
44RMARamganj Mandi Junction (3)  09:03+2009:05+232m--2-585.557358mWCRRamganj Mandi, Rajasthan
45JHWJhalawar Road (3)  09:18+2209:20+232m--2-573.255361mWCRJhalawar City, Rajasthan
46BWMBhawani Mandi (3)X  09:38+2009:40+292m--2-556.776384mWCRBhawani Mandi, Madhya Pradesh
47GOHGaroth (2)X  09:58+3010:00+312m12-534.026441mWCRMadhya Pradesh 458880, Madhya Pradesh
48SGZShamgarh (3)X  10:25+1810:30+245m--2-523.267463mWCRMandsaur, Madhya Pradesh
49SVASuwasra (2)  10:42+2610:44+262m--2-509.866450mWCRSuwasra, Madhya Pradesh
50CMUChau Mahla (3)  10:58+2711:00+302m12-494.435426mWCRJhalawar, Rajasthan
51THURThuriaX  11:24+1711:26+182m--2-480.221430mWCRMDR 45, Madhya Pradesh
52VMAVikramgarh Alot (2)X  11:48+811:50+122m12-472.661443mWCRKota Division, Madhya Pradesh
53LNRLuni Richha  12:03+1012:05+112m--2-459.328471mWCRAlote, Madhya Pradesh
54MEPMahidpur Road  12:28+112:30+52m--2-448.729493mWCRGogapur, Madhya Pradesh
55NADNagda Junction (4)  13:05+213:15+410m--2-431.675468mWRNagda, Madhya Pradesh
56KUHKhachrod (2)  13:26+913:28+102m--2-417.857497mWRUjjain, Madhya Pradesh
57RNHRunkheraX  13:39+813:41+72m--2-407.463478mWRUjjain, Madhya Pradesh
58BODBangrodX  13:48+713:50+72m--2-400.024484mWRRatlam, Madhya Pradesh
59RTMRatlam Junction (7)X  14:15+414:35+720m42-390.277495mWRRatlam, Madhya Pradesh
60RTIRaoti (2)  14:56+1314:58+122m--2-363.371409mWRState Highway 39A, Madhya Pradesh
61BOGBhairongarh (2)  15:08+1515:10+142m--2-351.451374mWRBhairongarh Railway Station, Madhya Pradesh
62BMIBamnia (2)  15:17+1515:19+152m--2-345.442392mWRBamnia, Madhya Pradesh
63AGRAmargarh (2)  15:25+1515:27+142m--2-341.357410mWRSH 39A, Madhya Pradesh
64PCNPanch Pipila (2)  15:37+1415:39+142m--2-331.884369mWRSH 39A, Madhya Pradesh
65THDRThandla Road (2)  15:49+1715:51+172m--2-317.960317mWRJhabua, Madhya Pradesh
66MGNMeghnagar (3)  15:59+1816:01+192m--2-309.973317mWRJhabua, Madhya Pradesh
67ANASAnas (2)  16:13+1916:15+192m--2-295.379288mWRMadhya Pradesh 389154 ?, Madhya Pradesh
68BIOBordi (2)  16:21+2016:23+192m--2-287.453289mWRNational Highway 59, Gujarat
69DHDDahod (3)  16:35+2316:40+245m--2-276.876313mWRDahod, Gujarat
70LMKLimkheda  17:06+3017:08+302m--2-243.868205mWRLimkheda, Gujarat
71PPDPiplod Junction  17:15+3017:17+292m--2-235.979209mWRPiplod, Gujarat
72SATSant Road (2)X  17:26+3117:28+302m22-224.120169mWROrwara, Gujarat
73GDAGodhra Junction (3)X  18:30+218:35+65m102-203.765122mWRGodhra, Gujarat
74KRSAKharsaliya (2)  18:45+1018:47+102m--2-192.885107mWRPanchmahal, Gujarat
75DRLDerolX  18:56+1118:58+112m12-180.16881mWRKalol, Gujarat
76CPNChampaner Road JunctionX  19:09+1219:11+112m--2-167.67578mWRPanchmahal, Gujarat
77SMLASamlaya Junction (3)X  19:20+1119:22+112m--2-156.44867mWRVadodara, Gujarat
78BRCVadodara Junction (7)  19:55+1820:05+1810m32-129.88936mWRVadodara 390005, Gujarat
79MYGMiyagam Karjan (2)  20:25+2520:27+242m--2-100.07229mWRKarjan, Gujarat
80BHBharuch Junction (5)  21:01+1921:03+192m42-59.36219mWRBharuch, Gujarat
81AKVAnkleshwar Junction (4)X  21:12+1921:14+202m22-49.97419mWRAnkleshwar, Gujarat
82KSBKosamba Junction (3)X21:29+2521:31+222m--2-31.43230mWRKosamba, Gujarat
83ST»Surat (4)»X  22:30+1122:38+118m220.07119mWRSurat 395001, Gujarat
84NVSNavsari (3)  23:03+1923:05+192m--229.67914mWRNavsari, Gujarat
85BIMBilimora Junction (4)X  23:21+2523:23+252m--250.83611mWRBilimora, Gujarat
86BLValsad (3)  23:53+1923:55+252m3268.73815mWRValsad, Gujarat
87VAPIVapi (3)X  00:36+1700:38+192m--394.95727mWRVapi, Gujarat
88PLGPalghar (3)  02:04+1902:06+222m--3176.43719mWRPalghar, Maharashtra
89VRVirar (8)  02:56+902:58+112m--3207.6486mWRDist. Palghar, Maharashtra
90BVI•Mumbai Borivali (8)•  03:30+703:32+92m53233.42319mWRMumbai - 400092, Maharashtra
91BDTSMumbai Bandra Terminus (5)  04:20+2-13252.2-4mWRMumbai 400050, Maharashtra
Scroll to Top
Scroll to Bottom